createdAt,value
2019-01-28T00:00:33.229Z,3.70
2019-01-28T00:03:02.056Z,3.70
2019-01-28T00:05:30.331Z,3.70
2019-01-28T00:07:58.584Z,3.70
2019-01-28T00:10:26.885Z,3.70
2019-01-28T00:12:55.136Z,3.70
2019-01-28T00:15:23.751Z,3.70
2019-01-28T00:17:52.005Z,3.70
2019-01-28T00:20:20.271Z,3.70
2019-01-28T00:22:48.544Z,3.70
2019-01-28T00:25:16.830Z,3.70
2019-01-28T00:27:45.115Z,3.70
2019-01-28T00:30:13.465Z,3.70
2019-01-28T00:32:41.772Z,3.70
2019-01-28T00:35:10.079Z,3.70
2019-01-28T00:37:38.329Z,3.70
2019-01-28T00:40:06.776Z,3.70
2019-01-28T00:42:35.019Z,3.70
2019-01-28T00:45:03.296Z,3.70
2019-01-28T00:47:31.552Z,3.70
2019-01-28T00:49:59.828Z,3.70
2019-01-28T00:52:28.104Z,3.70
2019-01-28T00:54:56.423Z,3.70
2019-01-28T00:57:24.693Z,3.70
2019-01-28T00:59:52.984Z,3.70
2019-01-28T01:02:21.243Z,3.70
2019-01-28T01:04:49.497Z,3.70
2019-01-28T01:07:17.943Z,3.70
2019-01-28T01:09:46.233Z,3.70
2019-01-28T01:12:14.867Z,3.70
2019-01-28T01:14:43.124Z,3.70
2019-01-28T01:17:11.417Z,3.70
2019-01-28T01:19:39.696Z,3.70
2019-01-28T01:22:07.988Z,3.70
2019-01-28T01:24:36.260Z,3.70
2019-01-28T01:27:04.622Z,3.70
2019-01-28T01:29:32.856Z,3.70
2019-01-28T01:32:01.148Z,3.70
2019-01-28T01:34:29.396Z,3.70
2019-01-28T01:36:57.699Z,3.70
2019-01-28T01:39:25.981Z,3.70
2019-01-28T01:41:54.301Z,3.70
2019-01-28T01:44:22.544Z,3.70
2019-01-28T01:46:50.804Z,3.80
2019-01-28T01:49:19.062Z,3.80
2019-01-28T01:51:47.311Z,3.70
2019-01-28T01:54:15.576Z,3.70
2019-01-28T01:56:43.815Z,3.70
2019-01-28T01:59:12.085Z,3.70
2019-01-28T02:01:40.339Z,3.70
2019-01-28T02:04:08.615Z,3.70
2019-01-28T02:06:36.883Z,3.70
2019-01-28T02:09:07.391Z,3.70
2019-01-28T02:11:35.614Z,3.70
2019-01-28T02:14:03.931Z,3.70
2019-01-28T02:16:32.215Z,3.60
2019-01-28T02:19:00.472Z,3.60
2019-01-28T02:21:28.730Z,3.60
2019-01-28T02:23:56.987Z,3.60
2019-01-28T02:26:25.240Z,3.60
2019-01-28T02:28:53.530Z,3.60
2019-01-28T02:31:21.777Z,3.60
2019-01-28T02:33:50.117Z,3.60
2019-01-28T02:36:18.380Z,3.60
2019-01-28T02:38:46.629Z,3.50
2019-01-28T02:41:14.898Z,3.60
2019-01-28T02:43:43.171Z,3.60
2019-01-28T02:46:11.464Z,3.60
2019-01-28T02:48:39.736Z,3.50
2019-01-28T02:51:07.989Z,3.50
2019-01-28T02:53:36.291Z,3.50
2019-01-28T02:56:04.689Z,3.50
2019-01-28T02:58:32.999Z,3.50
2019-01-28T03:01:01.268Z,3.40
2019-01-28T03:03:29.545Z,3.40
2019-01-28T03:05:57.799Z,3.40
2019-01-28T03:08:26.064Z,3.30
2019-01-28T03:10:54.348Z,3.30
2019-01-28T03:13:22.582Z,3.20
2019-01-28T03:15:50.877Z,3.30
2019-01-28T03:18:19.111Z,3.20
2019-01-28T03:20:47.376Z,3.20
2019-01-28T03:23:16.341Z,3.20
2019-01-28T03:25:44.601Z,3.10
2019-01-28T03:28:12.859Z,3.10
2019-01-28T03:30:41.129Z,3.10
2019-01-28T03:33:09.423Z,3.10
2019-01-28T03:35:37.751Z,3.10
2019-01-28T03:38:05.975Z,3.10
2019-01-28T03:40:34.236Z,3.10
2019-01-28T03:43:02.508Z,3.10
2019-01-28T03:45:30.779Z,3.10
2019-01-28T03:47:59.072Z,3.10
2019-01-28T03:50:27.332Z,3.10
2019-01-28T03:52:55.629Z,3.10
2019-01-28T03:55:23.884Z,3.00
2019-01-28T03:57:52.173Z,3.00
2019-01-28T04:00:23.958Z,3.00
2019-01-28T04:02:52.247Z,3.00
2019-01-28T04:05:20.605Z,3.00
2019-01-28T04:07:48.921Z,3.00
2019-01-28T04:10:18.036Z,3.00
2019-01-28T04:12:46.329Z,3.00
2019-01-28T04:15:14.712Z,3.00
2019-01-28T04:17:42.991Z,3.00
2019-01-28T04:20:11.980Z,3.00
2019-01-28T04:22:40.238Z,3.00
2019-01-28T04:25:08.848Z,3.00
2019-01-28T04:27:37.098Z,2.90
2019-01-28T04:30:06.524Z,2.90
2019-01-28T04:32:34.873Z,2.90
2019-01-28T04:35:03.149Z,2.90
2019-01-28T04:37:31.504Z,2.90
2019-01-28T04:39:59.816Z,2.90
2019-01-28T04:42:28.193Z,2.90
2019-01-28T04:44:56.474Z,2.90
2019-01-28T04:47:24.833Z,2.90
2019-01-28T04:49:53.074Z,2.90
2019-01-28T04:52:21.331Z,2.90
2019-01-28T04:54:49.876Z,2.80
2019-01-28T04:57:18.138Z,2.80
2019-01-28T04:59:46.400Z,2.80
2019-01-28T05:02:14.653Z,2.80
2019-01-28T05:04:42.935Z,2.80
2019-01-28T05:07:11.184Z,2.80
2019-01-28T05:09:39.425Z,2.80
2019-01-28T05:12:07.706Z,2.80
2019-01-28T05:14:36.056Z,2.80
2019-01-28T05:17:04.362Z,2.80
2019-01-28T05:19:32.628Z,2.80
2019-01-28T05:22:00.857Z,2.80
2019-01-28T05:24:29.222Z,2.80
2019-01-28T05:26:57.495Z,2.80
2019-01-28T05:29:25.748Z,2.80
2019-01-28T05:31:54.072Z,2.80
2019-01-28T05:34:22.329Z,2.80
2019-01-28T05:36:50.622Z,2.80
2019-01-28T05:39:18.888Z,2.80
2019-01-28T05:41:47.159Z,2.80
2019-01-28T05:44:15.445Z,2.80
2019-01-28T05:46:43.714Z,2.80
2019-01-28T05:49:11.975Z,2.80
2019-01-28T05:51:40.245Z,2.90
2019-01-28T05:54:08.535Z,2.90
2019-01-28T05:56:36.800Z,2.90
2019-01-28T05:59:05.072Z,2.80
2019-01-28T06:01:33.310Z,2.90
2019-01-28T06:04:01.577Z,2.90
2019-01-28T06:06:29.814Z,2.90
2019-01-28T06:08:58.111Z,2.90
2019-01-28T06:11:26.369Z,2.90
2019-01-28T06:13:54.632Z,2.90
2019-01-28T06:16:22.885Z,2.90
2019-01-28T06:18:51.144Z,3.00
2019-01-28T06:21:19.399Z,3.00
2019-01-28T06:23:47.667Z,3.00
2019-01-28T06:26:15.913Z,3.00
2019-01-28T06:28:44.185Z,3.00
2019-01-28T06:31:12.435Z,3.00
2019-01-28T06:33:40.681Z,3.00
2019-01-28T06:36:08.973Z,3.00
2019-01-28T06:38:37.217Z,3.00
2019-01-28T06:41:05.459Z,3.10
2019-01-28T06:43:33.719Z,3.00
2019-01-28T06:46:01.975Z,3.10
2019-01-28T06:48:30.230Z,3.00
2019-01-28T06:50:58.486Z,3.10
2019-01-28T06:53:26.783Z,3.10
2019-01-28T06:55:55.019Z,3.10
2019-01-28T06:58:23.297Z,3.10
2019-01-28T07:00:51.531Z,3.10
2019-01-28T07:03:19.792Z,3.20
2019-01-28T07:05:48.051Z,3.20
2019-01-28T07:08:16.304Z,3.20
2019-01-28T07:10:44.546Z,3.20
2019-01-28T07:13:12.798Z,3.20
2019-01-28T07:15:41.156Z,3.20
2019-01-28T07:18:09.396Z,3.20
2019-01-28T07:20:37.659Z,3.20
2019-01-28T07:23:05.891Z,3.30
2019-01-28T07:25:34.189Z,3.30
2019-01-28T07:28:02.425Z,3.30
2019-01-28T07:30:34.984Z,3.30
2019-01-28T07:33:03.236Z,3.30
2019-01-28T07:35:31.685Z,3.30
2019-01-28T07:38:00.017Z,3.30
2019-01-28T07:40:28.323Z,3.40
2019-01-28T07:42:56.560Z,3.40
2019-01-28T07:45:31.732Z,3.40
2019-01-28T07:48:02.941Z,3.40
2019-01-28T07:50:29.978Z,3.40
2019-01-28T07:52:58.231Z,3.40
2019-01-28T07:55:26.491Z,3.40
2019-01-28T07:57:54.747Z,3.40
2019-01-28T08:00:24.512Z,3.50
2019-01-28T08:02:52.776Z,3.50
2019-01-28T08:05:21.020Z,3.50
2019-01-28T08:07:49.300Z,3.50
2019-01-28T08:10:17.601Z,3.60
2019-01-28T08:12:45.900Z,3.60
2019-01-28T08:15:15.697Z,3.70
2019-01-28T08:17:43.963Z,3.80
2019-01-28T08:20:13.182Z,3.80
2019-01-28T08:22:41.452Z,3.80
2019-01-28T08:25:10.535Z,3.80
2019-01-28T08:27:38.800Z,3.90
2019-01-28T08:30:08.447Z,3.90
2019-01-28T08:32:36.735Z,4.00
2019-01-28T08:35:05.803Z,4.00
2019-01-28T08:37:34.067Z,4.00
2019-01-28T08:40:02.312Z,4.10
2019-01-28T08:42:30.582Z,4.00
2019-01-28T08:44:58.828Z,4.10
2019-01-28T08:47:27.107Z,4.10
2019-01-28T08:49:55.359Z,4.10
2019-01-28T08:52:23.628Z,4.10
2019-01-28T08:54:51.894Z,4.10
2019-01-28T08:57:20.151Z,4.10
2019-01-28T08:59:48.436Z,4.10
2019-01-28T09:02:16.665Z,4.10
2019-01-28T09:04:44.936Z,4.10
2019-01-28T09:07:13.172Z,4.10
2019-01-28T09:09:41.431Z,4.10
2019-01-28T09:12:09.677Z,4.10
2019-01-28T09:14:37.934Z,4.10
2019-01-28T09:17:06.192Z,4.10
2019-01-28T09:19:34.464Z,4.10
2019-01-28T09:22:02.818Z,4.10
2019-01-28T09:24:31.068Z,4.10
2019-01-28T09:26:59.316Z,4.10
2019-01-28T09:29:27.588Z,4.10
2019-01-28T09:31:55.826Z,4.10
2019-01-28T09:34:24.112Z,4.10
2019-01-28T09:36:52.361Z,4.10
2019-01-28T09:39:20.615Z,4.10
2019-01-28T09:41:48.849Z,4.10
2019-01-28T09:44:17.127Z,4.10
2019-01-28T09:46:45.373Z,4.10
2019-01-28T09:49:14.140Z,4.10
2019-01-28T09:51:42.397Z,4.10
2019-01-28T09:54:10.644Z,4.10
2019-01-28T09:56:38.912Z,4.10
2019-01-28T09:59:07.164Z,4.10
2019-01-28T10:01:35.428Z,4.10
2019-01-28T10:04:03.784Z,4.10
2019-01-28T10:06:32.055Z,4.20
2019-01-28T10:09:00.303Z,4.10
2019-01-28T10:11:28.568Z,4.10
2019-01-28T10:13:56.823Z,4.20
2019-01-28T10:16:25.113Z,4.20
2019-01-28T10:18:53.360Z,4.20
2019-01-28T10:21:21.609Z,4.20
2019-01-28T10:23:49.852Z,4.20
2019-01-28T10:26:18.120Z,4.20
2019-01-28T10:28:46.367Z,4.20
2019-01-28T10:31:14.673Z,4.20
2019-01-28T10:33:42.932Z,4.30
2019-01-28T10:36:11.304Z,4.20
2019-01-28T10:38:39.573Z,4.20
2019-01-28T10:41:07.816Z,4.30
2019-01-28T10:43:36.086Z,4.30
2019-01-28T10:46:04.384Z,4.30
2019-01-28T10:48:32.645Z,4.30
2019-01-28T10:51:00.881Z,4.30
2019-01-28T10:53:29.162Z,4.30
2019-01-28T10:55:57.409Z,4.30
2019-01-28T10:58:25.676Z,4.30
2019-01-28T11:00:54.129Z,4.40
2019-01-28T11:03:23.625Z,4.40
2019-01-28T11:05:51.912Z,4.40
2019-01-28T11:08:20.172Z,4.40
2019-01-28T11:10:48.584Z,4.40
2019-01-28T11:13:16.931Z,4.40
2019-01-28T11:15:45.340Z,4.40
2019-01-28T11:18:15.500Z,4.50
2019-01-28T11:20:43.761Z,4.50
2019-01-28T11:23:12.168Z,4.50
2019-01-28T11:25:40.596Z,4.50
2019-01-28T11:28:09.119Z,4.50
2019-01-28T11:30:40.669Z,4.50
2019-01-28T11:33:09.195Z,4.50
2019-01-28T11:35:37.704Z,4.60
2019-01-28T11:38:06.480Z,4.60
2019-01-28T11:40:34.971Z,4.60
2019-01-28T11:43:03.573Z,4.60
2019-01-28T11:45:33.207Z,4.60
2019-01-28T11:48:01.682Z,4.60
2019-01-28T11:50:29.995Z,4.60
2019-01-28T11:52:58.244Z,4.60
2019-01-28T11:55:26.504Z,4.70
2019-01-28T11:57:54.781Z,4.70
2019-01-28T12:00:36.752Z,4.70
2019-01-28T12:03:04.996Z,4.70
2019-01-28T12:05:33.297Z,4.70
2019-01-28T12:08:01.551Z,4.70
2019-01-28T12:10:29.811Z,4.70
2019-01-28T12:12:58.092Z,4.70
2019-01-28T12:15:26.375Z,4.70
2019-01-28T12:17:54.693Z,4.70
2019-01-28T12:20:23.930Z,4.70
2019-01-28T12:22:52.275Z,4.70
2019-01-28T12:25:20.554Z,4.70
2019-01-28T12:27:48.840Z,4.70
2019-01-28T12:30:18.703Z,4.70
2019-01-28T12:32:46.988Z,4.60
2019-01-28T12:35:17.406Z,4.60
2019-01-28T12:37:45.525Z,4.50
2019-01-28T12:40:14.872Z,4.50
2019-01-28T12:42:43.448Z,4.50
2019-01-28T12:45:13.120Z,4.50
2019-01-28T12:47:41.370Z,4.50
2019-01-28T12:50:09.650Z,4.50
2019-01-28T12:52:37.913Z,4.40
2019-01-28T12:55:07.563Z,4.40
2019-01-28T12:57:35.874Z,4.30
2019-01-28T13:00:06.012Z,4.30
2019-01-28T13:02:34.281Z,4.20
2019-01-28T13:05:02.537Z,4.20
2019-01-28T13:07:30.800Z,4.20
2019-01-28T13:09:59.049Z,4.20
2019-01-28T13:12:27.283Z,4.10
2019-01-28T13:14:55.553Z,4.10
2019-01-28T13:17:24.760Z,4.10
2019-01-28T13:19:53.784Z,4.10
2019-01-28T13:22:22.165Z,4.00
2019-01-28T13:24:50.435Z,4.00
2019-01-28T13:27:19.518Z,4.00
2019-01-28T13:29:47.849Z,3.90
2019-01-28T13:32:16.118Z,3.90
2019-01-28T13:34:44.448Z,3.90
2019-01-28T13:37:12.753Z,3.90
2019-01-28T13:39:41.040Z,3.90
2019-01-28T13:42:09.271Z,3.90
2019-01-28T13:44:37.559Z,3.90
2019-01-28T13:47:05.812Z,3.90
2019-01-28T13:49:38.314Z,3.80
2019-01-28T13:52:04.624Z,3.90
2019-01-28T13:54:32.896Z,3.80
2019-01-28T13:57:01.152Z,3.80
2019-01-28T13:59:29.420Z,3.80
2019-01-28T14:01:57.675Z,3.80
2019-01-28T14:04:25.912Z,3.70
2019-01-28T14:06:54.180Z,3.70
2019-01-28T14:09:22.471Z,3.70
2019-01-28T14:11:50.753Z,3.70
2019-01-28T14:14:19.004Z,3.70
2019-01-28T14:16:47.289Z,3.70
2019-01-28T14:19:15.535Z,3.70
2019-01-28T14:21:43.832Z,3.60
2019-01-28T14:24:12.172Z,3.60
2019-01-28T14:26:40.439Z,3.60
2019-01-28T14:29:08.697Z,3.60
2019-01-28T14:31:36.961Z,3.60
2019-01-28T14:34:06.586Z,3.60
2019-01-28T14:36:34.956Z,3.60
2019-01-28T14:39:04.455Z,3.60
2019-01-28T14:41:32.729Z,3.70
2019-01-28T14:44:00.971Z,3.60
2019-01-28T14:46:29.260Z,3.60
2019-01-28T14:48:57.528Z,3.60
2019-01-28T14:51:25.803Z,3.60
2019-01-28T14:53:54.049Z,3.60
2019-01-28T14:56:22.319Z,3.60
2019-01-28T14:58:50.596Z,3.60
2019-01-28T15:01:18.855Z,3.50
2019-01-28T15:03:47.140Z,3.50
2019-01-28T15:06:17.258Z,3.50
2019-01-28T15:08:45.425Z,3.50
2019-01-28T15:11:13.692Z,3.40
2019-01-28T15:13:41.980Z,3.40
2019-01-28T15:16:10.224Z,3.40
2019-01-28T15:18:38.483Z,3.40
2019-01-28T15:21:06.868Z,3.40
2019-01-28T15:23:35.192Z,3.30
2019-01-28T15:26:03.436Z,3.40
2019-01-28T15:28:31.717Z,3.30
2019-01-28T15:30:59.992Z,3.30
2019-01-28T15:33:28.336Z,3.30
2019-01-28T15:35:56.633Z,3.30
2019-01-28T15:38:24.930Z,3.30
2019-01-28T15:40:53.232Z,3.30
2019-01-28T15:43:21.507Z,3.30
2019-01-28T15:45:49.755Z,3.20
2019-01-28T15:48:18.028Z,3.20
2019-01-28T15:50:46.288Z,3.20
2019-01-28T15:53:14.547Z,3.20
2019-01-28T15:55:42.911Z,3.20
2019-01-28T15:58:11.787Z,3.10
2019-01-28T16:00:40.693Z,3.10
2019-01-28T16:03:09.322Z,3.10
2019-01-28T16:05:37.740Z,3.10
2019-01-28T16:08:06.431Z,3.10
2019-01-28T16:10:34.705Z,3.00
2019-01-28T16:13:03.129Z,3.00
2019-01-28T16:15:32.928Z,3.00
2019-01-28T16:18:01.180Z,2.90
2019-01-28T16:20:29.491Z,2.90
2019-01-28T16:22:57.790Z,2.90
2019-01-28T16:25:26.155Z,2.90
2019-01-28T16:27:54.439Z,2.90
2019-01-28T16:30:26.395Z,2.90
2019-01-28T16:32:53.573Z,2.90
2019-01-28T16:35:21.999Z,2.90
2019-01-28T16:37:50.591Z,2.80
2019-01-28T16:40:19.814Z,2.80
2019-01-28T16:42:48.254Z,2.80
2019-01-28T16:45:16.702Z,2.80
2019-01-28T16:47:45.117Z,2.80
2019-01-28T16:50:15.254Z,2.80
2019-01-28T16:52:43.550Z,2.80
2019-01-28T16:55:12.202Z,2.80
2019-01-28T16:57:40.617Z,2.80
2019-01-28T17:00:12.121Z,2.80
2019-01-28T17:02:40.416Z,2.80
2019-01-28T17:05:09.321Z,2.90
2019-01-28T17:07:37.648Z,2.90
2019-01-28T17:10:07.058Z,2.80
2019-01-28T17:12:35.399Z,2.90
2019-01-28T17:15:03.765Z,2.90
2019-01-28T17:17:32.180Z,2.90
2019-01-28T17:20:00.462Z,2.90
2019-01-28T17:22:28.769Z,2.90
2019-01-28T17:24:57.079Z,2.90
2019-01-28T17:27:25.423Z,2.80
2019-01-28T17:29:53.748Z,2.90
2019-01-28T17:32:22.011Z,2.80
2019-01-28T17:34:50.355Z,2.80
2019-01-28T17:37:18.656Z,2.80
2019-01-28T17:39:46.998Z,2.80
2019-01-28T17:42:15.267Z,2.70
2019-01-28T17:44:43.630Z,2.80
2019-01-28T17:47:11.960Z,2.70
2019-01-28T17:49:40.427Z,2.70
2019-01-28T17:52:08.856Z,2.70
2019-01-28T17:54:37.164Z,2.70
2019-01-28T17:57:05.481Z,2.70
2019-01-28T17:59:33.836Z,2.70
2019-01-28T18:02:02.260Z,2.60
2019-01-28T18:04:30.621Z,2.60
2019-01-28T18:06:59.024Z,2.60
2019-01-28T18:09:27.387Z,2.60
2019-01-28T18:11:55.727Z,2.60
2019-01-28T18:14:24.535Z,2.60
2019-01-28T18:16:52.857Z,2.50
2019-01-28T18:19:21.855Z,2.60
2019-01-28T18:21:50.152Z,2.50
2019-01-28T18:24:18.630Z,2.50
2019-01-28T18:26:47.145Z,2.50
2019-01-28T18:29:15.906Z,2.50
2019-01-28T18:31:44.197Z,2.50
2019-01-28T18:34:12.550Z,2.50
2019-01-28T18:36:40.848Z,2.40
2019-01-28T18:39:10.620Z,2.40
2019-01-28T18:41:39.259Z,2.40
2019-01-28T18:44:07.605Z,2.40
2019-01-28T18:46:36.026Z,2.40
2019-01-28T18:49:04.741Z,2.40
2019-01-28T18:51:33.109Z,2.40
2019-01-28T18:54:01.600Z,2.30
2019-01-28T18:56:30.084Z,2.40
2019-01-28T18:58:58.509Z,2.30
2019-01-28T19:01:26.856Z,2.30
2019-01-28T19:03:55.297Z,2.40
2019-01-28T19:06:41.299Z,2.30
2019-01-28T19:09:19.980Z,2.30
2019-01-28T19:11:57.744Z,2.30
2019-01-28T19:14:45.186Z,2.30
2019-01-28T19:17:41.419Z,2.40
2019-01-28T19:20:16.455Z,2.40
2019-01-28T19:22:45.037Z,2.40
2019-01-28T19:25:13.500Z,2.40
2019-01-28T19:27:42.020Z,2.40
2019-01-28T19:30:12.287Z,2.30
2019-01-28T19:32:40.618Z,2.40
2019-01-28T19:35:09.069Z,2.40
2019-01-28T19:37:37.477Z,2.40
2019-01-28T19:40:06.367Z,2.40
2019-01-28T19:42:34.649Z,2.40
2019-01-28T19:45:02.985Z,2.40
2019-01-28T19:47:31.363Z,2.40
2019-01-28T19:49:59.777Z,2.40
2019-01-28T19:52:28.169Z,2.40
2019-01-28T19:55:11.292Z,2.40
2019-01-28T19:57:40.083Z,2.40
2019-01-28T20:00:11.093Z,2.40
2019-01-28T20:02:39.451Z,2.40
2019-01-28T20:05:08.944Z,2.40
2019-01-28T20:07:37.240Z,2.40
2019-01-28T20:10:05.794Z,2.40
2019-01-28T20:12:34.188Z,2.40
2019-01-28T20:15:02.649Z,2.40
2019-01-28T20:17:31.038Z,2.40
2019-01-28T20:19:59.432Z,2.40
2019-01-28T20:22:27.796Z,2.50
2019-01-28T20:24:56.168Z,2.40
2019-01-28T20:27:24.640Z,2.40
2019-01-28T20:29:53.043Z,2.40
2019-01-28T20:32:21.397Z,2.40
2019-01-28T20:34:49.829Z,2.40
2019-01-28T20:37:19.769Z,2.40
2019-01-28T20:39:48.282Z,2.40
2019-01-28T20:42:16.608Z,2.40
2019-01-28T20:44:45.984Z,2.40
2019-01-28T20:47:14.307Z,2.40
2019-01-28T20:49:42.837Z,2.40
2019-01-28T20:52:11.243Z,2.40
2019-01-28T20:54:39.599Z,2.30
2019-01-28T20:57:07.990Z,2.30
2019-01-28T20:59:36.375Z,2.40
2019-01-28T21:02:04.730Z,2.40
2019-01-28T21:04:33.113Z,2.30
2019-01-28T21:07:01.499Z,2.30
2019-01-28T21:09:29.954Z,2.30
2019-01-28T21:11:58.472Z,2.30
2019-01-28T21:14:26.913Z,2.30
2019-01-28T21:16:55.403Z,2.20
2019-01-28T21:19:23.787Z,2.20
2019-01-28T21:21:52.191Z,2.20
2019-01-28T21:24:20.703Z,2.10
2019-01-28T21:26:49.049Z,2.10
2019-01-28T21:29:17.498Z,2.10
2019-01-28T21:31:45.878Z,2.10
2019-01-28T21:34:14.260Z,2.00
2019-01-28T21:36:57.414Z,2.00
2019-01-28T21:39:26.722Z,2.00
2019-01-28T21:41:55.134Z,2.00
2019-01-28T21:44:23.523Z,2.00
2019-01-28T21:46:51.908Z,2.00
2019-01-28T21:49:21.796Z,2.00
2019-01-28T21:51:50.846Z,1.90
2019-01-28T21:54:19.360Z,2.00
2019-01-28T21:56:47.646Z,1.90
2019-01-28T21:59:16.028Z,1.90
2019-01-28T22:01:44.319Z,1.90
2019-01-28T22:04:12.676Z,1.90
2019-01-28T22:06:41.028Z,1.90
2019-01-28T22:09:21.091Z,1.90
2019-01-28T22:11:49.731Z,1.90
2019-01-28T22:14:18.097Z,1.90
2019-01-28T22:16:46.429Z,1.80
2019-01-28T22:19:14.824Z,1.80
2019-01-28T22:21:43.175Z,1.80
2019-01-28T22:24:11.587Z,1.80
2019-01-28T22:26:39.999Z,1.80
2019-01-28T22:29:08.413Z,1.80
2019-01-28T22:31:36.810Z,1.80
2019-01-28T22:34:05.302Z,1.80
2019-01-28T22:36:33.656Z,1.70
2019-01-28T22:39:02.624Z,1.70
2019-01-28T22:41:31.471Z,1.70
2019-01-28T22:43:59.773Z,1.70
2019-01-28T22:46:28.165Z,1.70
2019-01-28T22:48:56.586Z,1.60
2019-01-28T22:51:25.121Z,1.60
2019-01-28T22:53:53.448Z,1.60
2019-01-28T22:56:21.855Z,1.60
2019-01-28T22:58:50.186Z,1.60
2019-01-28T23:01:26.229Z,1.60
2019-01-28T23:03:54.616Z,1.60
2019-01-28T23:06:23.081Z,1.60
2019-01-28T23:08:51.418Z,1.50
2019-01-28T23:11:19.819Z,1.50
2019-01-28T23:13:48.234Z,1.50
2019-01-28T23:16:17.118Z,1.50
2019-01-28T23:18:45.608Z,1.50
2019-01-28T23:21:13.982Z,1.50
2019-01-28T23:23:42.392Z,1.50
2019-01-28T23:26:10.706Z,1.50
2019-01-28T23:28:39.106Z,1.50
2019-01-28T23:31:07.551Z,1.50
2019-01-28T23:33:36.112Z,1.50
2019-01-28T23:36:04.947Z,1.50
2019-01-28T23:38:33.368Z,1.50
2019-01-28T23:41:01.789Z,1.50
2019-01-28T23:43:30.164Z,1.50
2019-01-28T23:45:58.568Z,1.50
2019-01-28T23:48:27.015Z,1.50
2019-01-28T23:50:55.368Z,1.50
2019-01-28T23:53:23.705Z,1.50
2019-01-28T23:55:52.112Z,1.50
2019-01-28T23:58:20.491Z,1.50
